createdAt,value
2023-03-30T00:01:06.222Z,11.88
2023-03-30T00:03:33.833Z,8.25
2023-03-30T00:06:05.261Z,10.00
2023-03-30T00:08:33.404Z,10.45
2023-03-30T00:11:01.994Z,10.00
2023-03-30T00:13:29.612Z,9.05
2023-03-30T00:15:57.001Z,8.38
2023-03-30T00:18:25.119Z,12.45
2023-03-30T00:20:53.361Z,13.15
2023-03-30T00:23:21.363Z,12.45
2023-03-30T00:25:48.937Z,12.05
2023-03-30T00:28:16.398Z,9.95
2023-03-30T00:30:43.819Z,10.50
2023-03-30T00:33:11.450Z,13.18
2023-03-30T00:35:38.847Z,13.98
2023-03-30T00:38:06.989Z,13.50
2023-03-30T00:40:35.256Z,12.40
2023-03-30T00:43:03.362Z,13.32
2023-03-30T00:45:30.857Z,14.75
2023-03-30T00:48:04.454Z,14.60
2023-03-30T00:50:43.823Z,19.52
2023-03-30T00:53:41.863Z,17.48
2023-03-30T00:56:10.349Z,17.98
2023-03-30T00:58:38.997Z,20.65
2023-03-30T01:01:08.429Z,16.80
2023-03-30T01:03:39.606Z,16.10
2023-03-30T01:06:08.076Z,18.23
2023-03-30T01:08:35.684Z,14.57
2023-03-30T01:11:03.874Z,19.75
2023-03-30T01:13:33.247Z,16.48
2023-03-30T01:16:06.449Z,17.08
2023-03-30T01:18:40.691Z,11.93
2023-03-30T01:21:27.738Z,14.63
2023-03-30T01:24:16.005Z,15.60
2023-03-30T01:26:47.359Z,15.30
2023-03-30T01:29:14.824Z,15.07
2023-03-30T01:31:46.845Z,15.02
2023-03-30T01:34:14.324Z,14.07
2023-03-30T01:37:00.037Z,13.95
2023-03-30T01:39:44.748Z,14.60
2023-03-30T01:42:17.176Z,13.82
2023-03-30T01:44:50.620Z,13.23
2023-03-30T01:47:18.661Z,11.85
2023-03-30T01:49:49.102Z,14.13
2023-03-30T01:52:16.698Z,16.30
2023-03-30T01:54:58.017Z,14.52
2023-03-30T01:57:32.023Z,13.77
2023-03-30T02:00:01.421Z,15.82
2023-03-30T02:02:31.126Z,13.80
2023-03-30T02:05:05.213Z,13.90
2023-03-30T02:07:33.649Z,15.05
2023-03-30T02:10:06.968Z,17.48
2023-03-30T02:12:35.104Z,19.27
2023-03-30T02:15:04.783Z,18.42
2023-03-30T02:17:33.108Z,17.27
2023-03-30T02:20:00.682Z,16.77
2023-03-30T02:22:29.567Z,15.70
2023-03-30T02:24:58.477Z,16.90
2023-03-30T02:27:27.143Z,17.83
2023-03-30T02:29:56.328Z,26.13
2023-03-30T02:32:25.070Z,28.95
2023-03-30T02:35:10.914Z,32.33
2023-03-30T02:37:53.666Z,39.28
2023-03-30T02:40:53.588Z,39.63
2023-03-30T02:43:40.037Z,34.50
2023-03-30T02:46:35.385Z,34.03
2023-03-30T02:49:16.736Z,27.80
2023-03-30T02:52:14.167Z,37.35
2023-03-30T02:54:55.688Z,38.00
2023-03-30T02:58:07.760Z,48.35
2023-03-30T03:01:02.296Z,59.58
2023-03-30T03:03:47.702Z,57.08
2023-03-30T03:06:17.183Z,56.03
2023-03-30T03:08:49.643Z,61.45
2023-03-30T03:11:23.492Z,63.35
2023-03-30T03:13:51.242Z,67.40
2023-03-30T03:16:19.099Z,68.97
2023-03-30T03:19:05.711Z,69.78
2023-03-30T03:21:33.388Z,65.47
2023-03-30T03:24:01.668Z,67.43
2023-03-30T03:26:49.087Z,42.85
2023-03-30T03:29:17.324Z,57.25
2023-03-30T03:31:44.795Z,40.50
2023-03-30T03:34:12.516Z,44.97
2023-03-30T03:36:55.147Z,53.63
2023-03-30T03:39:25.955Z,58.10
2023-03-30T03:42:00.359Z,54.03
2023-03-30T03:44:27.992Z,51.55
2023-03-30T03:46:55.781Z,63.03
2023-03-30T03:49:23.359Z,59.47
2023-03-30T03:51:50.874Z,53.65
2023-03-30T03:54:18.430Z,54.90
2023-03-30T03:56:48.563Z,50.88
2023-03-30T03:59:16.004Z,54.50
2023-03-30T04:01:43.429Z,45.80
2023-03-30T04:04:11.037Z,47.13
2023-03-30T04:06:40.549Z,54.45
2023-03-30T04:09:09.158Z,52.25
2023-03-30T04:11:56.779Z,51.88
2023-03-30T04:14:44.474Z,48.50
2023-03-30T04:17:11.897Z,44.75
2023-03-30T04:19:39.259Z,45.40
2023-03-30T04:22:42.142Z,49.33
2023-03-30T04:25:41.926Z,39.05
2023-03-30T04:28:35.133Z,37.70
2023-03-30T04:31:19.941Z,31.40
2023-03-30T04:34:09.458Z,34.28
2023-03-30T04:36:45.726Z,32.53
2023-03-30T04:39:38.622Z,23.63
2023-03-30T04:42:30.443Z,53.72
2023-03-30T04:45:21.057Z,54.25
2023-03-30T04:48:00.657Z,32.85
2023-03-30T04:50:47.993Z,29.60
2023-03-30T04:53:35.283Z,29.75
2023-03-30T04:56:37.798Z,29.33
2023-03-30T04:59:11.365Z,28.73
2023-03-30T05:01:58.125Z,32.25
2023-03-30T05:04:46.159Z,41.67
2023-03-30T05:07:42.765Z,29.90
2023-03-30T05:10:21.595Z,28.98
2023-03-30T05:13:09.014Z,29.48
2023-03-30T05:15:53.734Z,29.92
2023-03-30T05:18:40.016Z,42.75
2023-03-30T05:21:15.948Z,39.95
2023-03-30T05:24:18.634Z,48.40
2023-03-30T05:27:07.910Z,48.58
2023-03-30T05:32:36.238Z,31.85
2023-03-30T05:35:24.037Z,28.17
2023-03-30T05:38:23.765Z,27.83
2023-03-30T05:41:10.169Z,31.13
2023-03-30T05:43:43.537Z,31.48
2023-03-30T05:46:23.231Z,32.05
2023-03-30T05:49:17.802Z,29.48
2023-03-30T05:52:04.027Z,31.85
2023-03-30T05:54:51.712Z,34.67
2023-03-30T05:57:33.797Z,29.25
2023-03-30T06:00:25.907Z,25.63
2023-03-30T06:03:05.746Z,25.50
2023-03-30T06:05:36.121Z,22.10
2023-03-30T06:08:05.249Z,23.40
2023-03-30T06:10:32.625Z,20.10
2023-03-30T06:13:00.165Z,20.45
2023-03-30T06:15:47.867Z,16.77
2023-03-30T06:18:21.400Z,18.77
2023-03-30T06:21:03.052Z,18.67
2023-03-30T06:23:31.182Z,18.15
2023-03-30T06:26:03.294Z,20.60
2023-03-30T06:28:33.683Z,21.30
2023-03-30T06:31:03.182Z,19.50
2023-03-30T06:33:31.655Z,18.77
2023-03-30T06:36:01.943Z,18.30
2023-03-30T06:38:29.619Z,20.42
2023-03-30T06:40:57.643Z,20.73
2023-03-30T06:43:27.550Z,20.65
2023-03-30T06:46:08.459Z,17.77
2023-03-30T06:48:36.833Z,16.50
2023-03-30T06:51:22.782Z,16.75
2023-03-30T06:53:50.416Z,17.45
2023-03-30T06:56:17.832Z,18.75
2023-03-30T06:59:03.265Z,21.42
2023-03-30T07:01:31.765Z,19.02
2023-03-30T07:04:17.504Z,22.88
2023-03-30T07:07:04.885Z,20.92
2023-03-30T07:09:32.558Z,22.40
2023-03-30T07:12:00.297Z,20.75
2023-03-30T07:14:27.874Z,23.80
2023-03-30T07:16:55.416Z,21.45
2023-03-30T07:19:23.499Z,23.15
2023-03-30T07:24:21.730Z,20.83
2023-03-30T07:26:49.177Z,16.67
2023-03-30T07:29:16.874Z,14.60
2023-03-30T07:31:48.097Z,22.58
2023-03-30T07:34:17.531Z,16.20
2023-03-30T07:36:50.907Z,15.55
2023-03-30T07:39:18.766Z,13.60
2023-03-30T07:41:48.302Z,13.23
2023-03-30T07:44:16.137Z,16.33
2023-03-30T07:46:43.900Z,17.83
2023-03-30T07:49:17.083Z,7.07
2023-03-30T07:51:44.615Z,11.45
2023-03-30T07:54:22.377Z,9.27
2023-03-30T07:57:00.194Z,9.80
2023-03-30T07:59:28.039Z,11.30
2023-03-30T08:02:02.185Z,10.93
2023-03-30T08:04:46.732Z,4.93
2023-03-30T08:07:17.830Z,4.82
2023-03-30T08:09:46.940Z,6.15
2023-03-30T08:12:14.346Z,8.15
2023-03-30T08:14:41.817Z,7.78
2023-03-30T08:17:09.342Z,6.10
2023-03-30T08:19:36.751Z,5.10
2023-03-30T08:22:04.223Z,8.32
2023-03-30T08:24:32.014Z,6.47
2023-03-30T08:26:59.486Z,8.15
2023-03-30T08:29:27.096Z,9.95
2023-03-30T08:31:54.623Z,8.65
2023-03-30T08:34:22.295Z,8.00
2023-03-30T08:36:49.760Z,6.72
2023-03-30T08:39:17.135Z,6.43
2023-03-30T08:41:50.565Z,7.20
2023-03-30T08:44:19.642Z,10.68
2023-03-30T08:46:48.299Z,8.02
2023-03-30T08:49:18.061Z,6.82
2023-03-30T08:51:46.468Z,10.20
2023-03-30T08:54:16.867Z,11.52
2023-03-30T08:57:03.458Z,5.75
2023-03-30T08:59:31.169Z,7.50
2023-03-30T09:02:14.904Z,6.68
2023-03-30T09:04:42.374Z,5.80
2023-03-30T09:07:17.858Z,5.70
2023-03-30T09:09:49.052Z,7.35
2023-03-30T09:12:19.531Z,7.40
2023-03-30T09:14:59.007Z,8.73
2023-03-30T09:17:32.336Z,8.43
2023-03-30T09:20:07.149Z,9.05
2023-03-30T09:22:38.332Z,7.95
2023-03-30T09:25:18.247Z,7.35
2023-03-30T09:27:55.666Z,7.57
2023-03-30T09:30:25.970Z,8.32
2023-03-30T09:33:07.820Z,8.38
2023-03-30T09:35:42.621Z,7.00
2023-03-30T09:38:11.967Z,8.65
2023-03-30T09:41:01.005Z,10.98
2023-03-30T09:43:28.518Z,7.30
2023-03-30T09:45:57.736Z,7.40
2023-03-30T09:48:25.327Z,6.47
2023-03-30T09:50:52.677Z,6.95
2023-03-30T09:53:29.406Z,8.02
2023-03-30T09:56:10.152Z,5.35
2023-03-30T09:58:38.250Z,6.05
2023-03-30T10:01:13.323Z,8.73
2023-03-30T10:03:41.933Z,4.47
2023-03-30T10:06:28.034Z,5.43
2023-03-30T10:08:56.745Z,4.30
2023-03-30T10:11:50.494Z,3.50
2023-03-30T10:14:44.365Z,4.32
2023-03-30T10:17:20.711Z,5.03
2023-03-30T10:19:51.756Z,6.03
2023-03-30T10:22:22.994Z,5.82
2023-03-30T10:24:52.100Z,4.30
2023-03-30T10:27:20.113Z,6.90
2023-03-30T10:29:50.316Z,4.55
2023-03-30T10:32:32.349Z,6.05
2023-03-30T10:35:04.560Z,7.70
2023-03-30T10:37:34.144Z,4.18
2023-03-30T10:40:05.545Z,3.33
2023-03-30T10:42:33.758Z,3.35
2023-03-30T10:45:02.397Z,3.03
2023-03-30T10:47:48.737Z,4.28
2023-03-30T10:50:36.043Z,5.25
2023-03-30T10:53:06.735Z,4.68
2023-03-30T10:55:34.197Z,4.22
2023-03-30T10:58:19.927Z,4.63
2023-03-30T11:01:06.430Z,3.30
2023-03-30T11:03:35.516Z,5.03
2023-03-30T11:06:09.930Z,4.28
2023-03-30T11:08:39.406Z,4.68
2023-03-30T11:11:07.848Z,5.78
2023-03-30T11:13:41.212Z,3.80
2023-03-30T11:16:14.514Z,4.10
2023-03-30T11:19:00.530Z,4.57
2023-03-30T11:21:31.526Z,4.50
2023-03-30T11:24:02.229Z,6.00
2023-03-30T11:26:36.117Z,4.60
2023-03-30T11:29:08.326Z,3.58
2023-03-30T11:31:42.217Z,2.58
2023-03-30T11:34:29.950Z,3.80
2023-03-30T11:37:01.525Z,4.47
2023-03-30T11:39:32.856Z,4.03
2023-03-30T11:42:30.073Z,5.35
2023-03-30T11:44:57.781Z,19.02
2023-03-30T11:47:37.803Z,10.27
2023-03-30T11:50:08.522Z,8.57
2023-03-30T11:52:45.739Z,5.18
2023-03-30T11:55:19.367Z,5.50
2023-03-30T11:57:54.545Z,4.97
2023-03-30T12:00:22.320Z,6.88
2023-03-30T12:02:56.554Z,4.82
2023-03-30T12:05:24.062Z,3.40
2023-03-30T12:08:10.499Z,7.15
2023-03-30T12:10:40.771Z,5.93
2023-03-30T12:13:19.151Z,5.63
2023-03-30T12:15:53.878Z,11.68
2023-03-30T12:18:24.488Z,8.30
2023-03-30T12:20:58.121Z,21.33
2023-03-30T12:23:35.624Z,5.13
2023-03-30T12:26:21.856Z,8.80
2023-03-30T12:29:40.535Z,6.35
2023-03-30T12:31:52.784Z,5.10
2023-03-30T12:34:20.858Z,4.72
2023-03-30T12:37:11.024Z,5.43
2023-03-30T12:39:49.263Z,5.00
2023-03-30T12:42:34.482Z,4.47
2023-03-30T12:45:21.160Z,5.40
2023-03-30T12:47:48.757Z,3.85
2023-03-30T12:50:16.096Z,7.10
2023-03-30T12:52:47.611Z,6.15
2023-03-30T12:55:33.977Z,4.95
2023-03-30T12:58:19.990Z,7.18
2023-03-30T13:00:48.056Z,5.55
2023-03-30T13:03:15.530Z,11.23
2023-03-30T13:05:44.405Z,5.10
2023-03-30T13:08:30.456Z,5.18
2023-03-30T13:11:30.085Z,3.53
2023-03-30T13:13:57.533Z,3.92
2023-03-30T13:16:43.810Z,5.85
2023-03-30T13:19:28.227Z,2.45
2023-03-30T13:21:57.607Z,4.93
2023-03-30T13:24:28.424Z,3.08
2023-03-30T13:27:10.761Z,11.70
2023-03-30T13:29:38.225Z,4.50
2023-03-30T13:32:24.153Z,5.25
2023-03-30T13:35:05.360Z,4.60
2023-03-30T13:37:53.487Z,2.35
2023-03-30T13:40:35.561Z,2.72
2023-03-30T13:43:13.676Z,3.85
2023-03-30T13:46:13.330Z,4.07
2023-03-30T13:48:44.098Z,4.60
2023-03-30T13:51:15.457Z,4.55
2023-03-30T13:53:46.595Z,3.33
2023-03-30T13:56:14.596Z,5.05
2023-03-30T13:58:43.902Z,3.25
2023-03-30T14:01:13.411Z,5.15
2023-03-30T14:03:46.392Z,3.65
2023-03-30T14:06:14.274Z,6.45
2023-03-30T14:08:45.088Z,4.13
2023-03-30T14:11:15.632Z,4.80
2023-03-30T14:13:43.836Z,3.63
2023-03-30T14:16:14.191Z,2.85
2023-03-30T14:18:41.734Z,4.22
2023-03-30T14:21:11.940Z,7.07
2023-03-30T14:23:45.948Z,3.35
2023-03-30T14:26:13.508Z,10.40
2023-03-30T14:28:42.589Z,4.78
2023-03-30T14:31:14.999Z,4.10
2023-03-30T14:33:42.562Z,3.60
2023-03-30T14:36:12.044Z,3.13
2023-03-30T14:38:40.815Z,5.10
2023-03-30T14:41:09.557Z,3.50
2023-03-30T14:43:40.573Z,7.00
2023-03-30T14:46:10.801Z,7.35
2023-03-30T14:48:39.941Z,5.22
2023-03-30T14:51:09.606Z,3.33
2023-03-30T14:53:37.305Z,2.88
2023-03-30T14:56:05.095Z,6.35
2023-03-30T14:58:33.597Z,3.60
2023-03-30T15:01:09.266Z,3.67
2023-03-30T15:03:37.976Z,2.25
2023-03-30T15:06:06.961Z,3.08
2023-03-30T15:08:37.359Z,3.42
2023-03-30T15:11:09.536Z,4.28
2023-03-30T15:13:39.901Z,4.88
2023-03-30T15:16:07.466Z,3.72
2023-03-30T15:18:36.525Z,3.72
2023-03-30T15:21:04.312Z,4.68
2023-03-30T15:23:37.068Z,6.38
2023-03-30T15:26:07.140Z,5.15
2023-03-30T15:28:44.306Z,3.20
2023-03-30T15:31:14.076Z,9.05
2023-03-30T15:33:46.816Z,4.47
2023-03-30T15:36:18.239Z,6.03
2023-03-30T15:38:50.499Z,5.13
2023-03-30T15:41:18.545Z,3.30
2023-03-30T15:44:09.023Z,6.03
2023-03-30T15:46:37.014Z,5.20
2023-03-30T15:49:05.366Z,9.30
2023-03-30T15:51:37.991Z,4.65
2023-03-30T15:54:12.949Z,3.70
2023-03-30T15:56:52.995Z,7.07
2023-03-30T15:59:22.040Z,4.07
2023-03-30T16:01:52.126Z,7.22
2023-03-30T16:04:20.746Z,7.53
2023-03-30T16:06:48.455Z,4.78
2023-03-30T16:09:16.478Z,6.82
2023-03-30T16:11:45.727Z,4.97
2023-03-30T16:14:22.980Z,6.07
2023-03-30T16:16:50.586Z,6.95
2023-03-30T16:19:19.918Z,10.65
2023-03-30T16:21:47.415Z,8.23
2023-03-30T16:24:14.835Z,9.73
2023-03-30T16:26:42.665Z,9.80
2023-03-30T16:29:31.380Z,7.90
2023-03-30T16:31:59.215Z,12.63
2023-03-30T16:34:26.642Z,10.35
2023-03-30T16:36:54.125Z,9.65
2023-03-30T16:39:23.037Z,12.00
2023-03-30T16:41:51.208Z,15.25
2023-03-30T16:44:19.950Z,14.52
2023-03-30T16:46:47.782Z,14.57
2023-03-30T16:49:16.635Z,16.10
2023-03-30T16:51:44.264Z,15.00
2023-03-30T16:54:27.193Z,9.90
2023-03-30T16:56:58.535Z,17.42
2023-03-30T16:59:27.089Z,20.98
2023-03-30T17:01:54.657Z,13.75
2023-03-30T17:04:22.135Z,14.38
2023-03-30T17:06:49.682Z,17.95
2023-03-30T17:09:18.190Z,15.95
2023-03-30T17:11:49.513Z,23.88
2023-03-30T17:14:17.587Z,28.73
2023-03-30T17:16:45.093Z,33.33
2023-03-30T17:19:13.723Z,35.20
2023-03-30T17:21:43.574Z,32.30
2023-03-30T17:24:15.259Z,36.28
2023-03-30T17:26:43.155Z,41.70
2023-03-30T17:29:11.248Z,37.60
2023-03-30T17:31:39.168Z,23.95
2023-03-30T17:34:07.447Z,31.00
2023-03-30T17:36:35.174Z,36.28
2023-03-30T17:39:05.613Z,47.97
2023-03-30T17:41:36.237Z,60.55
2023-03-30T17:44:03.760Z,47.95
2023-03-30T17:46:31.304Z,38.78
2023-03-30T17:49:00.000Z,38.53
2023-03-30T17:51:27.675Z,44.00
2023-03-30T17:53:55.207Z,40.30
2023-03-30T17:56:22.642Z,42.63
2023-03-30T17:58:51.846Z,44.42
2023-03-30T18:01:19.325Z,38.17
2023-03-30T18:03:46.935Z,38.90
2023-03-30T18:06:14.418Z,41.05
2023-03-30T18:08:43.212Z,41.38
2023-03-30T18:11:10.955Z,41.28
2023-03-30T18:13:38.464Z,56.60
2023-03-30T18:16:06.131Z,60.28
2023-03-30T18:18:33.642Z,57.10
2023-03-30T18:21:06.698Z,71.00
2023-03-30T18:23:35.133Z,112.30
2023-03-30T18:26:11.218Z,120.22
2023-03-30T18:28:42.505Z,99.22
2023-03-30T18:31:10.366Z,96.72
2023-03-30T18:33:39.340Z,103.60
2023-03-30T18:36:12.918Z,118.45
2023-03-30T18:38:41.339Z,135.30
2023-03-30T18:41:11.469Z,100.60
2023-03-30T18:43:39.500Z,84.43
2023-03-30T18:46:07.330Z,69.20
2023-03-30T18:48:35.591Z,60.30
2023-03-30T18:51:03.341Z,66.47
2023-03-30T18:53:30.954Z,60.22
2023-03-30T18:56:00.826Z,66.60
2023-03-30T18:58:29.703Z,72.78
2023-03-30T19:00:57.252Z,61.70
2023-03-30T19:03:25.679Z,60.63
2023-03-30T19:05:59.256Z,55.08
2023-03-30T19:08:27.224Z,66.35
2023-03-30T19:10:56.386Z,66.65
2023-03-30T19:13:25.217Z,70.30
2023-03-30T19:15:53.165Z,69.88
2023-03-30T19:18:21.060Z,96.72
2023-03-30T19:20:53.358Z,73.88
2023-03-30T19:23:21.927Z,70.70
2023-03-30T19:25:49.442Z,64.72
2023-03-30T19:28:17.136Z,65.53
2023-03-30T19:30:45.068Z,63.40
2023-03-30T19:33:16.291Z,63.47
2023-03-30T19:35:44.981Z,63.90
2023-03-30T19:38:12.830Z,53.95
2023-03-30T19:40:40.766Z,58.70
2023-03-30T19:43:08.440Z,54.90
2023-03-30T19:45:36.332Z,47.35
2023-03-30T19:48:04.239Z,42.38
2023-03-30T19:50:31.844Z,40.80
2023-03-30T19:52:59.478Z,36.50
2023-03-30T19:55:27.251Z,32.63
2023-03-30T19:57:54.653Z,35.08
2023-03-30T20:00:22.144Z,30.35
2023-03-30T20:02:50.857Z,31.08
2023-03-30T20:05:19.051Z,31.70
2023-03-30T20:07:47.420Z,30.55
2023-03-30T20:10:16.652Z,31.52
2023-03-30T20:12:44.034Z,31.08
2023-03-30T20:15:11.758Z,31.50
2023-03-30T20:17:40.075Z,29.17
2023-03-30T20:20:09.278Z,30.70
2023-03-30T20:22:37.530Z,35.20
2023-03-30T20:25:07.548Z,30.70
2023-03-30T20:27:35.749Z,34.22
2023-03-30T20:30:03.584Z,31.50
2023-03-30T20:32:31.072Z,30.95
2023-03-30T20:34:58.704Z,34.30
2023-03-30T20:37:26.144Z,31.00
2023-03-30T20:39:53.563Z,37.33
2023-03-30T20:42:26.357Z,32.30
2023-03-30T20:44:55.793Z,36.63
2023-03-30T20:47:23.496Z,39.17
2023-03-30T20:49:50.968Z,44.22
2023-03-30T20:52:18.373Z,40.13
2023-03-30T20:54:45.793Z,40.15
2023-03-30T20:57:13.352Z,36.92
2023-03-30T20:59:41.166Z,32.45
2023-03-30T21:02:08.694Z,33.83
2023-03-30T21:04:36.619Z,36.88
2023-03-30T21:07:04.398Z,38.80
2023-03-30T21:09:31.912Z,43.92
2023-03-30T21:11:59.353Z,41.35
2023-03-30T21:14:27.527Z,40.30
2023-03-30T21:16:55.012Z,38.67
2023-03-30T21:19:22.420Z,40.13
2023-03-30T21:21:49.833Z,36.40
2023-03-30T21:24:18.506Z,38.05
2023-03-30T21:26:46.106Z,31.42
2023-03-30T21:29:13.495Z,34.45
2023-03-30T21:31:40.934Z,33.92
2023-03-30T21:34:09.092Z,30.70
2023-03-30T21:36:36.772Z,28.15
2023-03-30T21:39:04.238Z,31.17
2023-03-30T21:41:31.696Z,27.25
2023-03-30T21:43:59.144Z,28.08
2023-03-30T21:46:27.120Z,23.27
2023-03-30T21:48:54.794Z,21.30
2023-03-30T21:51:27.403Z,25.98
2023-03-30T21:53:55.963Z,22.67
2023-03-30T21:56:25.149Z,19.00
2023-03-30T21:58:52.924Z,18.00
2023-03-30T22:01:20.952Z,15.02
2023-03-30T22:03:48.732Z,14.07
2023-03-30T22:06:17.287Z,13.43
2023-03-30T22:08:45.687Z,12.30
2023-03-30T22:11:14.918Z,16.90
2023-03-30T22:13:42.551Z,14.10
2023-03-30T22:16:16.398Z,15.73
2023-03-30T22:18:44.396Z,12.50
2023-03-30T22:21:17.261Z,14.15
2023-03-30T22:23:45.137Z,17.08
2023-03-30T22:26:13.089Z,20.00
2023-03-30T22:28:41.075Z,22.52
2023-03-30T22:31:09.175Z,13.57
2023-03-30T22:33:36.662Z,17.25
2023-03-30T22:36:04.727Z,14.25
2023-03-30T22:38:32.270Z,12.88
2023-03-30T22:41:07.128Z,13.77
2023-03-30T22:43:35.990Z,14.43
2023-03-30T22:46:03.836Z,14.10
2023-03-30T22:48:31.368Z,17.40
2023-03-30T22:51:02.205Z,14.82
2023-03-30T22:53:33.013Z,19.15
2023-03-30T22:56:00.749Z,15.43
2023-03-30T22:58:28.266Z,14.77
2023-03-30T23:01:02.567Z,15.88
2023-03-30T23:03:30.266Z,13.73
2023-03-30T23:06:01.395Z,13.10
2023-03-30T23:08:32.446Z,15.77
2023-03-30T23:11:05.126Z,14.40
2023-03-30T23:13:37.862Z,16.85
2023-03-30T23:16:06.794Z,16.10
2023-03-30T23:18:35.219Z,13.85
2023-03-30T23:21:06.951Z,14.52
2023-03-30T23:23:35.375Z,14.45
2023-03-30T23:26:08.412Z,14.30
2023-03-30T23:28:37.736Z,12.90
2023-03-30T23:31:12.645Z,13.32
2023-03-30T23:33:40.527Z,10.13
2023-03-30T23:36:08.957Z,11.95
2023-03-30T23:38:37.547Z,13.85
2023-03-30T23:41:06.055Z,11.32
2023-03-30T23:43:33.607Z,16.30
2023-03-30T23:46:01.023Z,13.23
2023-03-30T23:48:28.611Z,12.68
2023-03-30T23:50:56.953Z,12.52
2023-03-30T23:53:26.436Z,13.73
2023-03-30T23:55:54.404Z,13.95
2023-03-30T23:58:21.796Z,11.65
